Afonso Bezerra, Brazil
Current Conditions -  °F | °C
As of 10:00 AM on Friday 24 Oct 2014 (Local Time) from SBNT Reporting Station
Broken Clouds Broken Clouds  
Wind Chill: 84°   Ceiling: 2500
Heat Index: 86°   Visibility: 6mi
Dew Point: 66°   Wind: 18mph
Humidity: 55%   Direction: 110°ESE
Pressure: 29.94"   Gusts: NA
Location:  5.5°S, 36.51°W
Report Text: SBNT 241300Z 11016KT 9999 BKN025 29/19 Q1014
Loading
Personal Weather Stations






























Interactive Weather Map
Tropical Storm Tracking
New forecast layout! Learn more

10-Day Weather Forecast

Advertisements
Track Severe Weather on mobile